Time;durP1;ratioP1;P1;durP2;ratioP2;P2;SDS_P1;SDS_P2;PMS_P1;PMS_P2;Temp;Humidity;BMP_temperature;BMP_pressure;BME280_temperature;BME280_humidity;BME280_pressure;Samples;Min_cycle;Max_cycle;Signal;HPM_P1;HPM_P2
2023/07/25 00:01:29;;;;;;;10.57;3.15;;;;;;;;;;6255867;22;20085;-88
2023/07/25 00:03:55;;;;;;;9.00;2.97;;;;;;;;;;6253212;22;20012;-87
2023/07/25 00:06:23;;;;;;;14.10;3.45;;;;;;;;;;6251638;22;20460;-88
2023/07/25 00:08:49;;;;;;;11.57;3.15;;;;;;;;;;6278886;22;20422;-88
2023/07/25 00:11:26;;;;;;;22.02;3.50;;;;;;;;;;6280367;22;20007;-88
2023/07/25 00:13:55;;;;;;;14.60;2.65;;;;;;;;;;6278962;22;20014;-87
2023/07/25 00:16:22;;;;;;;16.05;3.85;;;;;;;;;;6278513;22;20007;-88
2023/07/25 00:18:50;;;;;;;16.38;4.57;;;;;;;;;;6278330;22;20011;-88
2023/07/25 00:21:17;;;;;;;13.43;3.90;;;;;;;;;;6278022;22;20068;-88
2023/07/25 00:23:59;;;;;;;16.63;3.53;;;;;;;;;;6254671;22;20041;-88
2023/07/25 00:26:28;;;;;;;11.43;3.53;;;;;;;;;;6255084;22;20015;-88
2023/07/25 00:28:55;;;;;;;14.00;3.15;;;;;;;;;;6280758;22;20010;-88
2023/07/25 00:31:23;;;;;;;8.43;3.03;;;;;;;;;;6253755;22;20004;-88
2023/07/25 00:34:00;;;;;;;5.88;2.92;;;;;;;;;;6255219;22;20079;-88
2023/07/25 00:36:33;;;;;;;10.07;3.28;;;;;;;;;;6254045;22;20430;-88
2023/07/25 00:38:59;;;;;;;22.15;3.10;;;;;;;;;;6279154;22;20015;-88
2023/07/25 00:41:30;;;;;;;9.43;3.35;;;;;;;;;;6253159;22;20016;-88
2023/07/25 00:44:01;;;;;;;14.50;3.58;;;;;;;;;;6278939;22;20086;-88
2023/07/25 00:46:28;;;;;;;13.45;3.20;;;;;;;;;;6254158;22;20074;-88
2023/07/25 00:48:54;;;;;;;14.77;3.20;;;;;;;;;;6278860;22;20007;-88
2023/07/25 00:51:20;;;;;;;11.50;2.47;;;;;;;;;;6251141;22;20014;-88
2023/07/25 00:53:47;;;;;;;8.20;2.78;;;;;;;;;;6253157;22;20018;-88
2023/07/25 00:56:14;;;;;;;8.35;2.95;;;;;;;;;;6278984;22;20031;-88
2023/07/25 00:58:48;;;;;;;24.65;5.35;;;;;;;;;;6278196;22;20004;-87
2023/07/25 01:01:14;;;;;;;11.00;2.83;;;;;;;;;;6277581;22;20444;-87
2023/07/25 01:03:53;;;;;;;7.97;3.17;;;;;;;;;;6253487;22;20008;-88
2023/07/25 01:06:20;;;;;;;8.57;2.92;;;;;;;;;;6254267;22;20003;-88
2023/07/25 01:08:50;;;;;;;12.60;2.63;;;;;;;;;;6252712;22;20079;-87
2023/07/25 01:11:17;;;;;;;13.57;3.38;;;;;;;;;;6278570;22;20004;-87
2023/07/25 01:14:10;;;;;;;6.40;2.75;;;;;;;;;;6278234;22;19988;-87
2023/07/25 01:16:49;;;;;;;10.23;2.58;;;;;;;;;;6279876;22;20000;-87
2023/07/25 01:19:17;;;;;;;11.65;3.33;;;;;;;;;;6279763;22;20007;-87
2023/07/25 01:22:10;;;;;;;10.15;2.65;;;;;;;;;;6282009;22;20560;-88
2023/07/25 01:24:38;;;;;;;8.18;2.92;;;;;;;;;;6257619;22;20011;-88
2023/07/25 01:27:11;;;;;;;10.23;3.33;;;;;;;;;;6281058;22;20007;-88
2023/07/25 01:29:38;;;;;;;11.82;3.00;;;;;;;;;;6259142;22;20083;-88
2023/07/25 01:32:05;;;;;;;6.85;3.45;;;;;;;;;;6257707;22;20018;-88
2023/07/25 01:34:33;;;;;;;7.00;2.92;;;;;;;;;;6283014;22;20436;-88
2023/07/25 01:37:02;;;;;;;9.48;2.90;;;;;;;;;;6282536;22;20073;-88
2023/07/25 01:39:30;;;;;;;8.52;2.70;;;;;;;;;;6283564;22;20004;-88
2023/07/25 01:41:56;;;;;;;14.07;3.25;;;;;;;;;;6283428;22;20494;-87
2023/07/25 01:44:26;;;;;;;8.13;2.60;;;;;;;;;;6282336;22;20007;-88
2023/07/25 01:46:56;;;;;;;13.93;3.15;;;;;;;;;;6282727;22;20015;-88
2023/07/25 01:49:23;;;;;;;16.25;2.83;;;;;;;;;;6283133;22;20086;-87
2023/07/25 01:51:51;;;;;;;4.68;2.90;;;;;;;;;;6282570;22;20012;-86
2023/07/25 01:54:26;;;;;;;15.60;2.78;;;;;;;;;;6281516;22;20008;-88
2023/07/25 01:56:52;;;;;;;15.75;3.80;;;;;;;;;;6282320;22;20003;-87
2023/07/25 01:59:28;;;;;;;16.77;3.72;;;;;;;;;;6280758;22;20007;-87
2023/07/25 02:01:54;;;;;;;8.25;3.47;;;;;;;;;;6284781;22;20004;-88
2023/07/25 02:04:20;;;;;;;10.68;3.15;;;;;;;;;;6257812;22;20516;-88
2023/07/25 02:06:46;;;;;;;9.85;3.58;;;;;;;;;;6254985;22;20038;-88
2023/07/25 02:11:59;;;;;;;;;;;;;;;;;;6219510;22;20124;-87
2023/07/25 02:14:26;;;;;;;11.93;2.80;;;;;;;;;;6279066;22;19949;-87
2023/07/25 02:16:53;;;;;;;12.98;4.05;;;;;;;;;;6257354;22;20000;-88
2023/07/25 02:19:20;;;;;;;10.32;3.03;;;;;;;;;;6253410;22;20008;-87
2023/07/25 02:21:53;;;;;;;11.13;3.90;;;;;;;;;;6281501;22;20063;-88
2023/07/25 02:24:21;;;;;;;13.13;3.40;;;;;;;;;;6279626;22;20077;-87
2023/07/25 02:26:48;;;;;;;18.35;3.58;;;;;;;;;;6280893;22;20069;-88
2023/07/25 02:29:21;;;;;;;7.93;2.88;;;;;;;;;;6254283;22;20012;-88
2023/07/25 02:31:47;;;;;;;14.27;3.83;;;;;;;;;;6255878;22;20007;-89
2023/07/25 02:34:13;;;;;;;15.02;3.83;;;;;;;;;;6256298;22;20011;-88
2023/07/25 02:36:42;;;;;;;16.60;3.72;;;;;;;;;;6282759;22;20087;-88
2023/07/25 02:39:15;;;;;;;13.15;3.38;;;;;;;;;;6279787;22;20003;-88
2023/07/25 02:41:41;;;;;;;10.90;3.13;;;;;;;;;;6281254;22;20015;-89
2023/07/25 02:44:07;;;;;;;17.13;3.95;;;;;;;;;;6255370;22;20012;-89
2023/07/25 02:46:33;;;;;;;9.95;2.90;;;;;;;;;;6254409;22;20008;-88
2023/07/25 02:49:15;;;;;;;13.45;3.58;;;;;;;;;;6280791;22;20066;-88
2023/07/25 02:51:41;;;;;;;10.77;3.20;;;;;;;;;;6254625;22;20018;-88
2023/07/25 02:54:07;;;;;;;8.73;3.20;;;;;;;;;;6255091;22;20018;-88
2023/07/25 02:56:33;;;;;;;9.63;3.15;;;;;;;;;;6255639;22;20012;-89
2023/07/25 02:59:01;;;;;;;8.32;3.10;;;;;;;;;;6257218;22;20042;-89
2023/07/25 03:01:27;;;;;;;20.67;3.95;;;;;;;;;;6255055;22;20008;-88
2023/07/25 03:03:54;;;;;;;7.22;3.78;;;;;;;;;;6280014;22;20060;-88
2023/07/25 03:06:20;;;;;;;8.95;3.80;;;;;;;;;;6253835;22;20019;-88
2023/07/25 03:08:46;;;;;;;7.25;3.65;;;;;;;;;;6255245;22;20038;-88
2023/07/25 03:11:12;;;;;;;9.80;3.25;;;;;;;;;;6254886;22;20016;-88
2023/07/25 03:13:39;;;;;;;14.70;4.43;;;;;;;;;;6254878;22;20010;-87
2023/07/25 03:16:12;;;;;;;16.95;3.22;;;;;;;;;;6253874;22;20003;-89
2023/07/25 03:18:39;;;;;;;7.53;3.20;;;;;;;;;;6278889;22;20397;-88
2023/07/25 03:21:05;;;;;;;16.00;3.47;;;;;;;;;;6277927;22;20008;-89
2023/07/25 03:23:31;;;;;;;7.50;3.05;;;;;;;;;;6254488;22;20007;-88
2023/07/25 03:25:58;;;;;;;10.75;3.70;;;;;;;;;;6253651;22;20726;-89
2023/07/25 03:28:27;;;;;;;13.63;3.28;;;;;;;;;;6253065;22;20015;-88
2023/07/25 03:30:53;;;;;;;15.48;3.35;;;;;;;;;;6278522;22;20004;-88
2023/07/25 03:33:19;;;;;;;15.88;3.58;;;;;;;;;;6280052;22;20019;-88
2023/07/25 03:35:45;;;;;;;12.45;2.70;;;;;;;;;;6255671;22;20096;-88
2023/07/25 03:38:11;;;;;;;8.10;2.53;;;;;;;;;;6256532;22;20467;-88
2023/07/25 03:40:37;;;;;;;15.77;3.28;;;;;;;;;;6255298;22;20012;-89
2023/07/25 03:43:04;;;;;;;7.88;3.20;;;;;;;;;;6280915;22;20008;-89
2023/07/25 03:45:30;;;;;;;13.75;2.90;;;;;;;;;;6281639;22;20404;-89
2023/07/25 03:47:59;;;;;;;17.38;3.70;;;;;;;;;;6256064;22;20519;-89
2023/07/25 03:50:31;;;;;;;15.25;3.25;;;;;;;;;;6281234;22;20053;-88
2023/07/25 03:52:58;;;;;;;15.50;3.20;;;;;;;;;;6282929;22;20008;-88
2023/07/25 03:55:25;;;;;;;13.65;2.92;;;;;;;;;;6281097;22;20006;-88
2023/07/25 03:58:06;;;;;;;14.35;3.25;;;;;;;;;;6283287;22;20434;-88
2023/07/25 04:00:35;;;;;;;11.70;2.85;;;;;;;;;;6256725;22;20015;-89
2023/07/25 04:03:01;;;;;;;9.70;2.97;;;;;;;;;;6282497;22;20413;-88
2023/07/25 04:05:28;;;;;;;9.55;3.00;;;;;;;;;;6282988;22;20035;-89
2023/07/25 04:07:54;;;;;;;13.65;3.38;;;;;;;;;;6281290;22;20003;-88
2023/07/25 04:10:30;;;;;;;10.65;3.40;;;;;;;;;;6234194;22;20027;-88
2023/07/25 04:12:56;;;;;;;12.77;3.30;;;;;;;;;;6256809;22;20004;-88
2023/07/25 04:15:23;;;;;;;12.93;3.22;;;;;;;;;;6257337;22;20038;-88
2023/07/25 04:17:49;;;;;;;13.05;3.70;;;;;;;;;;6257222;22;20027;-88
2023/07/25 04:20:17;;;;;;;17.40;3.30;;;;;;;;;;6282320;22;20003;-89
2023/07/25 04:22:43;;;;;;;13.80;3.50;;;;;;;;;;6258121;22;20437;-88
2023/07/25 04:25:11;;;;;;;9.98;3.67;;;;;;;;;;6257407;22;20012;-89
2023/07/25 04:27:42;;;;;;;22.48;4.05;;;;;;;;;;6257616;22;20330;-88
2023/07/25 04:30:09;;;;;;;16.30;3.78;;;;;;;;;;6281818;22;20007;-89
2023/07/25 04:35:36;;;;;;;14.88;4.03;;;;;;;;;;6282526;22;20038;-89
2023/07/25 04:38:02;;;;;;;11.30;3.53;;;;;;;;;;6258292;22;20081;-88
2023/07/25 04:40:40;;;;;;;22.40;3.70;;;;;;;;;;6282281;22;20016;-89
2023/07/25 04:43:08;;;;;;;10.75;3.55;;;;;;;;;;6258515;22;20038;-90
2023/07/25 04:45:34;;;;;;;9.88;3.25;;;;;;;;;;6282341;22;20015;-89
2023/07/25 04:48:11;;;;;;;17.73;3.88;;;;;;;;;;6256650;22;20464;-89
2023/07/25 04:50:39;;;;;;;8.73;3.60;;;;;;;;;;6256202;22;20011;-89
2023/07/25 04:53:10;;;;;;;16.90;3.17;;;;;;;;;;6256059;22;20035;-89
2023/07/25 04:55:37;;;;;;;23.63;3.50;;;;;;;;;;6255960;22;20012;-89
2023/07/25 04:58:04;;;;;;;10.63;3.33;;;;;;;;;;6281281;22;20023;-89
2023/07/25 05:00:32;;;;;;;13.13;4.20;;;;;;;;;;6256402;22;20018;-89
2023/07/25 05:02:58;;;;;;;15.18;3.88;;;;;;;;;;6256246;22;20066;-89
2023/07/25 05:05:25;;;;;;;19.27;4.00;;;;;;;;;;6280598;22;20035;-90
2023/07/25 05:07:57;;;;;;;20.55;4.35;;;;;;;;;;6282543;22;20057;-89
2023/07/25 05:10:23;;;;;;;12.68;3.90;;;;;;;;;;6281511;22;20651;-90
2023/07/25 05:12:49;;;;;;;8.13;3.58;;;;;;;;;;6256540;22;20452;-89
2023/07/25 05:15:18;;;;;;;17.48;3.20;;;;;;;;;;6255278;22;20061;-90
2023/07/25 05:17:59;;;;;;;12.32;3.85;;;;;;;;;;6256028;22;20008;-89
2023/07/25 05:20:25;;;;;;;9.80;3.13;;;;;;;;;;6279396;22;20004;-89
2023/07/25 05:22:51;;;;;;;16.13;3.47;;;;;;;;;;6256260;22;20023;-89
2023/07/25 05:25:20;;;;;;;8.90;2.85;;;;;;;;;;6256163;22;20008;-88
2023/07/25 05:28:01;;;;;;;16.25;3.10;;;;;;;;;;6255205;22;20016;-88
2023/07/25 05:30:41;;;;;;;20.15;3.78;;;;;;;;;;6267315;22;20008;-89
2023/07/25 05:39:12;;;;;;;17.88;3.50;;;;;;;;;;6285599;22;20469;-89
2023/07/25 05:41:59;;;;;;;13.27;2.70;;;;;;;;;;6261581;22;20059;-89
2023/07/25 05:45:09;;;;;;;;;;;;;;;;;;;;;
2023/07/25 05:47:43;;;;;;;8.27;2.95;;;;;;;;;;6290853;22;20019;-91
2023/07/25 05:50:14;;;;;;;12.43;4.35;;;;;;;;;;6287059;22;20595;-89
2023/07/25 05:52:44;;;;;;;4.30;3.00;;;;;;;;;;6282820;22;20434;-89
2023/07/25 05:55:12;;;;;;;12.55;2.80;;;;;;;;;;6281719;22;20004;-89
2023/07/25 05:57:38;;;;;;;10.75;2.40;;;;;;;;;;6255336;22;20012;-89
2023/07/25 06:00:05;;;;;;;12.45;2.78;;;;;;;;;;6281263;22;20426;-88
2023/07/25 06:02:32;;;;;;;12.20;4.88;;;;;;;;;;6279733;22;20011;-89
2023/07/25 06:04:58;;;;;;;8.57;3.50;;;;;;;;;;6280744;22;20011;-89
2023/07/25 06:07:24;;;;;;;8.25;2.00;;;;;;;;;;6281042;22;20015;-89
2023/07/25 06:10:04;;;;;;;8.07;2.17;;;;;;;;;;6255073;22;20007;-89
2023/07/25 06:12:30;;;;;;;5.07;2.15;;;;;;;;;;6255120;22;20061;-89
2023/07/25 06:15:00;;;;;;;5.43;2.20;;;;;;;;;;6279618;22;20004;-89
2023/07/25 06:17:35;;;;;;;19.02;2.30;;;;;;;;;;6282181;22;20000;-89
2023/07/25 06:20:01;;;;;;;4.38;2.05;;;;;;;;;;6257181;22;20457;-89
2023/07/25 06:22:28;;;;;;;16.27;2.35;;;;;;;;;;6256687;22;20071;-89
2023/07/25 06:24:57;;;;;;;8.13;2.22;;;;;;;;;;6281932;22;20059;-89
2023/07/25 06:27:23;;;;;;;6.88;2.22;;;;;;;;;;6281854;22;20007;-89
2023/07/25 06:29:53;;;;;;;11.55;1.85;;;;;;;;;;6281355;22;20004;-89
2023/07/25 06:32:30;;;;;;;6.93;2.00;;;;;;;;;;6253430;22;20026;-90
2023/07/25 06:34:57;;;;;;;3.83;1.48;;;;;;;;;;6258478;22;20003;-89
2023/07/25 06:38:01;;;;;;;8.60;1.52;;;;;;;;;;6256336;22;20034;-88
2023/07/25 06:40:30;;;;;;;6.72;1.38;;;;;;;;;;6236091;22;19999;-90
2023/07/25 06:43:01;;;;;;;7.43;1.33;;;;;;;;;;6256479;22;20011;-88
2023/07/25 06:45:31;;;;;;;7.95;1.67;;;;;;;;;;6281530;22;20008;-89
2023/07/25 06:48:12;;;;;;;5.57;1.65;;;;;;;;;;6258596;22;20107;-88
2023/07/25 06:50:43;;;;;;;9.25;1.55;;;;;;;;;;6281549;22;20011;-89
2023/07/25 06:53:32;;;;;;;6.72;1.23;;;;;;;;;;6259206;22;20015;-90
2023/07/25 06:56:00;;;;;;;5.72;1.95;;;;;;;;;;6282292;22;20000;-89
2023/07/25 06:58:35;;;;;;;8.55;1.30;;;;;;;;;;6284481;22;20003;-89
2023/07/25 07:03:50;;;;;;;5.93;1.55;;;;;;;;;;6287253;22;20023;-88
2023/07/25 07:06:19;;;;;;;5.60;1.40;;;;;;;;;;6259673;22;20016;-89
2023/07/25 07:08:50;;;;;;;4.18;1.50;;;;;;;;;;6259383;22;20454;-88
2023/07/25 07:11:18;;;;;;;2.42;1.05;;;;;;;;;;6285633;22;20008;-88
2023/07/25 07:13:49;;;;;;;2.35;1.00;;;;;;;;;;6259721;22;20011;-90
2023/07/25 07:16:20;;;;;;;6.70;0.80;;;;;;;;;;6283136;22;20015;-89
2023/07/25 07:18:46;;;;;;;4.55;1.08;;;;;;;;;;6257744;22;20015;-89
2023/07/25 07:21:13;;;;;;;8.52;1.40;;;;;;;;;;6282166;22;20329;-89
2023/07/25 07:23:43;;;;;;;5.55;1.17;;;;;;;;;;6282511;22;20004;-88
2023/07/25 07:26:10;;;;;;;11.40;1.42;;;;;;;;;;6256636;22;20081;-88
2023/07/25 07:28:36;;;;;;;7.43;1.77;;;;;;;;;;6255919;22;20069;-89
2023/07/25 07:31:02;;;;;;;2.65;1.00;;;;;;;;;;6256106;22;20015;-89
2023/07/25 07:33:30;;;;;;;11.07;1.27;;;;;;;;;;6257362;22;20039;-89
2023/07/25 07:36:00;;;;;;;4.47;0.95;;;;;;;;;;6284637;22;20062;-89
2023/07/25 07:38:27;;;;;;;12.13;1.58;;;;;;;;;;6283786;22;20309;-88
2023/07/25 07:40:53;;;;;;;9.90;2.53;;;;;;;;;;6285878;22;20003;-89
2023/07/25 07:43:23;;;;;;;2.63;0.90;;;;;;;;;;6285581;22;20008;-88
2023/07/25 07:45:49;;;;;;;3.80;1.02;;;;;;;;;;6286225;22;20044;-89
2023/07/25 07:48:16;;;;;;;2.70;0.77;;;;;;;;;;6285854;22;20035;-88
2023/07/25 07:50:46;;;;;;;2.78;0.98;;;;;;;;;;6287289;22;19995;-88
2023/07/25 07:53:13;;;;;;;2.00;0.80;;;;;;;;;;6284268;22;20059;-87
2023/07/25 07:55:52;;;;;;;9.43;1.08;;;;;;;;;;6259508;22;19988;-88
2023/07/25 07:58:18;;;;;;;2.50;0.98;;;;;;;;;;6257294;22;20304;-88
2023/07/25 08:00:44;;;;;;;2.58;1.10;;;;;;;;;;6257582;22;20007;-90
2023/07/25 08:03:12;;;;;;;7.90;1.20;;;;;;;;;;6283845;22;20096;-88
2023/07/25 08:05:40;;;;;;;2.22;0.82;;;;;;;;;;6285211;22;20019;-89
2023/07/25 08:08:06;;;;;;;5.38;1.15;;;;;;;;;;6284707;22;20058;-89
2023/07/25 08:10:32;;;;;;;13.35;1.55;;;;;;;;;;6258394;22;20011;-89
2023/07/25 08:12:59;;;;;;;2.83;1.00;;;;;;;;;;6255969;22;20008;-89
2023/07/25 08:15:25;;;;;;;2.95;1.10;;;;;;;;;;6256283;22;20103;-88
2023/07/25 08:17:51;;;;;;;5.45;1.20;;;;;;;;;;6257279;22;20015;-89
2023/07/25 08:20:23;;;;;;;5.45;1.15;;;;;;;;;;6284621;22;20434;-88
2023/07/25 08:22:49;;;;;;;5.35;1.33;;;;;;;;;;6260872;22;20014;-88
2023/07/25 08:25:15;;;;;;;5.05;1.17;;;;;;;;;;6260511;22;20011;-89
2023/07/25 08:27:41;;;;;;;3.00;1.10;;;;;;;;;;6285950;22;20010;-88
2023/07/25 08:30:32;;;;;;;4.03;1.48;;;;;;;;;;6262172;22;20039;-88
2023/07/25 08:32:58;;;;;;;6.20;1.25;;;;;;;;;;6263647;22;20012;-89
2023/07/25 08:35:37;;;;;;;3.75;1.15;;;;;;;;;;6288525;22;20007;-90
2023/07/25 08:38:04;;;;;;;5.90;1.40;;;;;;;;;;6260441;22;20028;-90
2023/07/25 08:40:30;;;;;;;5.03;2.03;;;;;;;;;;6290092;22;20011;-90
2023/07/25 08:43:11;;;;;;;6.80;2.50;;;;;;;;;;6287782;22;20043;-88
2023/07/25 08:45:41;;;;;;;5.80;1.40;;;;;;;;;;6287146;22;20038;-90
2023/07/25 08:48:15;;;;;;;3.50;0.90;;;;;;;;;;6259667;22;20015;-89
2023/07/25 08:50:46;;;;;;;7.90;1.40;;;;;;;;;;6288615;22;20007;-90
2023/07/25 08:53:22;;;;;;;5.07;1.50;;;;;;;;;;6289175;22;20012;-90
2023/07/25 08:55:48;;;;;;;4.80;1.50;;;;;;;;;;6289825;22;20007;-90
2023/07/25 08:58:18;;;;;;;2.42;1.10;;;;;;;;;;6262652;22;20022;-90
2023/07/25 09:00:48;;;;;;;5.45;0.70;;;;;;;;;;6291353;22;20015;-89
2023/07/25 09:03:18;;;;;;;4.90;1.67;;;;;;;;;;6289163;22;20373;-88
2023/07/25 09:05:45;;;;;;;2.70;1.20;;;;;;;;;;6289424;22;19996;-89
2023/07/25 09:08:16;;;;;;;6.95;1.02;;;;;;;;;;6284598;22;20007;-89
2023/07/25 09:14:20;;;;;;;8.73;1.38;;;;;;;;;;6136644;23;20387;-89
2023/07/25 09:17:00;;;;;;;;;;;;;;;;;;;;;
2023/07/25 09:19:48;;;;;;;2.78;1.30;;;;;;;;;;6138862;23;20021;-90
2023/07/25 09:22:36;;;;;;;3.88;1.00;;;;;;;;;;6140313;23;20010;-90
2023/07/25 09:28:18;;;;;;;4.55;1.20;;;;;;;;;;6136590;23;20053;-90
2023/07/25 09:30:59;;;;;;;3.58;0.82;;;;;;;;;;6134284;23;20133;-89
2023/07/25 09:33:27;;;;;;;3.00;0.90;;;;;;;;;;6134973;23;20092;-90
2023/07/25 09:35:55;;;;;;;4.50;0.82;;;;;;;;;;6112103;23;20033;-90
2023/07/25 09:38:21;;;;;;;8.40;1.20;;;;;;;;;;6174754;23;20435;-90
2023/07/25 09:41:06;;;;;;;;;;;;;;;;;;;;;
2023/07/25 09:43:34;;;;;;;4.68;1.00;;;;;;;;;;6285445;22;19991;-89
2023/07/25 09:46:13;;;;;;;5.93;1.67;;;;;;;;;;6258802;22;20016;-89
2023/07/25 09:48:46;;;;;;;4.28;1.23;;;;;;;;;;6286062;22;20014;-89
2023/07/25 09:51:26;;;;;;;8.85;1.30;;;;;;;;;;6287660;22;20027;-89
2023/07/25 09:53:54;;;;;;;5.35;1.35;;;;;;;;;;6263391;22;20014;-89
2023/07/25 09:56:29;;;;;;;12.07;2.72;;;;;;;;;;6290743;22;20015;-88
2023/07/25 09:58:55;;;;;;;3.53;1.25;;;;;;;;;;6285786;22;20008;-89
2023/07/25 10:09:49;;;;;;;7.20;1.40;;;;;;;;;;6286766;22;20027;-88
2023/07/25 10:12:15;;;;;;;10.30;1.60;;;;;;;;;;6268399;22;20091;-86
2023/07/25 10:14:41;;;;;;;3.15;1.50;;;;;;;;;;6291356;22;20004;-88
2023/07/25 10:17:13;;;;;;;7.00;1.30;;;;;;;;;;6269805;22;20271;-89
2023/07/25 10:19:49;;;;;;;4.13;1.58;;;;;;;;;;6293561;22;20429;-89
2023/07/25 10:22:18;;;;;;;7.80;1.08;;;;;;;;;;6296650;22;19999;-89
2023/07/25 10:24:44;;;;;;;4.03;1.20;;;;;;;;;;6285310;22;20000;-90
2023/07/25 10:27:13;;;;;;;4.13;1.30;;;;;;;;;;6288487;22;19995;-90
2023/07/25 10:29:55;;;;;;;3.95;1.08;;;;;;;;;;6265211;22;20012;-89
2023/07/25 10:32:30;;;;;;;2.58;1.00;;;;;;;;;;6280112;22;20040;-89
2023/07/25 10:35:07;;;;;;;6.75;1.00;;;;;;;;;;6265659;22;20015;-90
2023/07/25 10:37:38;;;;;;;3.95;1.15;;;;;;;;;;6291934;22;19984;-89
2023/07/25 10:40:22;;;;;;;4.63;1.60;;;;;;;;;;6284732;22;20073;-90
2023/07/25 10:42:52;;;;;;;6.53;1.30;;;;;;;;;;6292965;22;20043;-89
2023/07/25 10:45:45;;;;;;;4.53;1.27;;;;;;;;;;6292300;22;20008;-89
2023/07/25 10:48:32;;;;;;;2.55;0.93;;;;;;;;;;6288449;22;20065;-90
2023/07/25 10:51:00;;;;;;;3.78;1.25;;;;;;;;;;6287703;22;20007;-90
2023/07/25 10:53:27;;;;;;;4.05;1.00;;;;;;;;;;6260359;22;20012;-89
2023/07/25 10:56:12;;;;;;;1.67;1.30;;;;;;;;;;6288221;22;20000;-89
2023/07/25 10:59:07;;;;;;;5.00;1.20;;;;;;;;;;6287081;22;20004;-90
2023/07/25 11:04:21;;;;;;;5.30;1.50;;;;;;;;;;6281598;22;20247;-89
2023/07/25 11:07:09;;;;;;;7.57;1.23;;;;;;;;;;6283133;22;20075;-89
2023/07/25 11:09:45;;;;;;;4.25;1.10;;;;;;;;;;6283676;22;20015;-89
2023/07/25 11:12:21;;;;;;;2.03;1.10;;;;;;;;;;6265463;22;20114;-89
2023/07/25 11:14:50;;;;;;;2.33;1.40;;;;;;;;;;6290875;22;20019;-89
2023/07/25 11:17:17;;;;;;;4.35;1.15;;;;;;;;;;6290452;22;20232;-89
2023/07/25 11:19:43;;;;;;;9.00;2.35;;;;;;;;;;6264555;22;20738;-88
2023/07/25 11:22:13;;;;;;;4.07;0.73;;;;;;;;;;6288965;22;20054;-89
2023/07/25 11:24:56;;;;;;;5.93;1.00;;;;;;;;;;6264977;22;20014;-89
2023/07/25 11:27:23;;;;;;;4.75;1.27;;;;;;;;;;6289974;22;20000;-89
2023/07/25 11:29:49;;;;;;;7.47;1.33;;;;;;;;;;6291558;22;20008;-89
2023/07/25 11:32:16;;;;;;;4.95;1.20;;;;;;;;;;6260097;22;20637;-88
2023/07/25 11:34:52;;;;;;;4.35;1.70;;;;;;;;;;6261699;22;20004;-89
2023/07/25 11:37:18;;;;;;;3.78;1.85;;;;;;;;;;6289780;22;20007;-90
2023/07/25 11:39:46;;;;;;;3.85;1.27;;;;;;;;;;6288834;22;20011;-90
2023/07/25 11:42:14;;;;;;;7.00;1.75;;;;;;;;;;6262703;22;20120;-90
2023/07/25 11:44:41;;;;;;;7.10;1.63;;;;;;;;;;6261229;22;20361;-89
2023/07/25 11:47:08;;;;;;;6.82;1.40;;;;;;;;;;6287338;22;20425;-89
2023/07/25 11:49:34;;;;;;;8.10;1.33;;;;;;;;;;6261680;22;20004;-90
2023/07/25 11:52:03;;;;;;;1.20;0.77;;;;;;;;;;6284489;22;20004;-89
2023/07/25 11:54:46;;;;;;;3.83;1.13;;;;;;;;;;6283354;22;20220;-89
2023/07/25 11:59:59;;;;;;;7.07;1.10;;;;;;;;;;6290750;22;20017;-88
2023/07/25 12:05:43;;;;;;;4.97;1.15;;;;;;;;;;6292697;22;20026;-88
2023/07/25 12:08:39;;;;;;;;;;;;;;;;;;;;;
2023/07/25 12:11:11;;;;;;;4.18;1.10;;;;;;;;;;6282594;22;20019;-89
2023/07/25 12:14:19;;;;;;;4.07;0.93;;;;;;;;;;6283264;22;20007;-90
2023/07/25 12:16:57;;;;;;;2.80;0.85;;;;;;;;;;6165274;23;20005;-89
2023/07/25 12:19:32;;;;;;;3.45;0.80;;;;;;;;;;6137773;23;20009;-89
2023/07/25 12:22:07;;;;;;;7.60;1.13;;;;;;;;;;6142062;23;20005;-89
2023/07/25 12:24:41;;;;;;;3.60;1.17;;;;;;;;;;6162572;23;20009;-90
2023/07/25 12:27:19;;;;;;;5.72;1.45;;;;;;;;;;6148297;22;20286;-89
2023/07/25 12:29:45;;;;;;;2.45;1.27;;;;;;;;;;6266423;22;20043;-89
2023/07/25 12:32:15;;;;;;;2.40;0.75;;;;;;;;;;6287866;22;20051;-89
2023/07/25 12:34:45;;;;;;;1.92;0.75;;;;;;;;;;6259374;22;20401;-89
2023/07/25 12:37:12;;;;;;;2.67;1.10;;;;;;;;;;6262932;22;19996;-90
2023/07/25 12:39:41;;;;;;;3.83;1.00;;;;;;;;;;6258986;22;20007;-89
2023/07/25 12:42:07;;;;;;;5.05;1.00;;;;;;;;;;6257307;22;20312;-89
2023/07/25 12:44:46;;;;;;;2.33;1.05;;;;;;;;;;6281738;22;20038;-89
2023/07/25 12:47:15;;;;;;;7.25;1.15;;;;;;;;;;6260556;22;20007;-89
2023/07/25 12:49:43;;;;;;;2.38;1.00;;;;;;;;;;6260021;22;20061;-89
2023/07/25 12:52:22;;;;;;;7.45;1.08;;;;;;;;;;6282709;22;20481;-90
2023/07/25 12:54:48;;;;;;;4.45;1.08;;;;;;;;;;6284222;22;20476;-90
2023/07/25 12:57:14;;;;;;;4.82;1.38;;;;;;;;;;6258245;22;20071;-89
2023/07/25 12:59:41;;;;;;;2.35;1.17;;;;;;;;;;6256946;22;20015;-89
2023/07/25 13:02:18;;;;;;;0.90;0.68;;;;;;;;;;6255423;22;20304;-90
2023/07/25 13:04:45;;;;;;;8.60;1.25;;;;;;;;;;6259973;22;20379;-89
2023/07/25 13:07:14;;;;;;;9.73;1.00;;;;;;;;;;6258607;22;20091;-88
2023/07/25 13:09:41;;;;;;;4.38;1.27;;;;;;;;;;6258689;22;20026;-88
2023/07/25 13:12:08;;;;;;;2.90;0.90;;;;;;;;;;6256331;22;20011;-88
2023/07/25 13:14:37;;;;;;;2.92;0.90;;;;;;;;;;6282872;22;20004;-89
2023/07/25 13:17:06;;;;;;;3.40;1.00;;;;;;;;;;6261017;22;20068;-88
2023/07/25 13:19:35;;;;;;;4.35;0.95;;;;;;;;;;6287920;22;20050;-89
2023/07/25 13:22:08;;;;;;;1.85;1.42;;;;;;;;;;6286292;22;20004;-89
2023/07/25 13:24:35;;;;;;;1.35;0.85;;;;;;;;;;6261446;22;20046;-88
2023/07/25 13:27:02;;;;;;;2.40;0.85;;;;;;;;;;6287802;22;20079;-88
2023/07/25 13:29:28;;;;;;;2.08;1.00;;;;;;;;;;6284265;22;20039;-88
2023/07/25 13:31:54;;;;;;;2.17;0.50;;;;;;;;;;6284055;22;20011;-89
2023/07/25 13:34:23;;;;;;;0.75;0.57;;;;;;;;;;6288378;22;20004;-89
2023/07/25 13:36:58;;;;;;;4.32;0.90;;;;;;;;;;6287554;22;20004;-88
2023/07/25 13:39:26;;;;;;;1.05;0.60;;;;;;;;;;6262785;22;20007;-88
2023/07/25 13:41:53;;;;;;;4.38;0.75;;;;;;;;;;6262375;22;20072;-89
2023/07/25 13:44:19;;;;;;;1.05;0.80;;;;;;;;;;6263709;22;20022;-88
2023/07/25 13:46:50;;;;;;;3.50;0.70;;;;;;;;;;6261820;22;20027;-88
2023/07/25 13:49:16;;;;;;;2.17;0.80;;;;;;;;;;6264971;22;20018;-88
2023/07/25 13:51:57;;;;;;;8.40;1.55;;;;;;;;;;6287400;22;20533;-88
2023/07/25 13:54:26;;;;;;;6.30;1.40;;;;;;;;;;6261121;22;20237;-89
2023/07/25 13:56:53;;;;;;;5.72;1.33;;;;;;;;;;6259975;22;20008;-89
2023/07/25 13:59:19;;;;;;;2.85;1.00;;;;;;;;;;6258716;22;20004;-89
2023/07/25 14:01:45;;;;;;;1.25;0.70;;;;;;;;;;6261851;22;20003;-89
2023/07/25 14:04:14;;;;;;;5.53;1.10;;;;;;;;;;6287563;22;20003;-90
2023/07/25 14:06:41;;;;;;;5.55;1.33;;;;;;;;;;6260363;22;20042;-91
2023/07/25 14:09:08;;;;;;;9.13;1.35;;;;;;;;;;6288938;22;20087;-90
2023/07/25 14:11:38;;;;;;;4.00;1.70;;;;;;;;;;6260922;22;20434;-88
2023/07/25 14:14:07;;;;;;;3.80;1.42;;;;;;;;;;6283462;22;20031;-89
2023/07/25 14:16:33;;;;;;;1.88;1.25;;;;;;;;;;6288884;22;20031;-89
2023/07/25 14:18:59;;;;;;;7.95;1.48;;;;;;;;;;6260344;22;20441;-89
2023/07/25 14:21:27;;;;;;;3.38;1.02;;;;;;;;;;6262564;22;20010;-89
2023/07/25 14:23:53;;;;;;;2.38;1.20;;;;;;;;;;6287348;22;20008;-90
2023/07/25 14:26:19;;;;;;;1.83;1.20;;;;;;;;;;6287463;22;20003;-89
2023/07/25 14:28:46;;;;;;;2.45;1.55;;;;;;;;;;6259488;22;20008;-88
2023/07/25 14:31:17;;;;;;;4.35;1.40;;;;;;;;;;6287091;22;20007;-89
2023/07/25 14:39:59;;;;;;;3.50;1.23;;;;;;;;;;6106857;23;20030;-89
2023/07/25 14:42:37;;;;;;;2.28;0.95;;;;;;;;;;6181567;23;20005;-88
2023/07/25 14:45:04;;;;;;;2.80;1.15;;;;;;;;;;6214728;22;20337;-89
2023/07/25 14:47:31;;;;;;;6.05;1.30;;;;;;;;;;6287251;22;20026;-88
2023/07/25 14:49:58;;;;;;;3.80;1.08;;;;;;;;;;6262575;22;20019;-88
2023/07/25 14:52:33;;;;;;;5.47;1.23;;;;;;;;;;6260525;22;20018;-89
2023/07/25 14:55:02;;;;;;;3.08;1.27;;;;;;;;;;6285729;22;20008;-90
2023/07/25 14:58:08;;;;;;;3.50;1.70;;;;;;;;;;6287751;22;20078;-88
2023/07/25 15:00:35;;;;;;;7.03;1.30;;;;;;;;;;6145438;22;20348;-89
2023/07/25 15:03:40;;;;;;;5.80;2.13;;;;;;;;;;6285449;22;20016;-89
2023/07/25 15:06:28;;;;;;;;;;;;;;;;;;6230237;22;20470;-88
2023/07/25 15:15:24;;;;;;;6.35;1.90;;;;;;;;;;6144368;23;20009;-89
2023/07/25 15:18:24;;;;;;;4.43;1.13;;;;;;;;;;6192278;23;20004;-89
2023/07/25 15:24:10;;;;;;;3.70;0.80;;;;;;;;;;6204835;23;19993;-88
2023/07/25 15:26:39;;;;;;;3.30;1.10;;;;;;;;;;6197561;23;20016;-90
2023/07/25 15:29:12;;;;;;;3.70;1.30;;;;;;;;;;6203041;23;20012;-90
2023/07/25 15:31:51;;;;;;;4.78;1.80;;;;;;;;;;6281764;22;20015;-89
2023/07/25 15:34:23;;;;;;;2.67;1.27;;;;;;;;;;6261829;22;20034;-89
2023/07/25 15:37:06;;;;;;;7.60;1.35;;;;;;;;;;6262174;22;20067;-89
2023/07/25 15:39:42;;;;;;;3.78;1.17;;;;;;;;;;6286766;22;20082;-89
2023/07/25 15:42:12;;;;;;;6.55;1.25;;;;;;;;;;6261760;22;20015;-89
2023/07/25 15:44:38;;;;;;;4.35;1.30;;;;;;;;;;6261723;22;20015;-89
2023/07/25 15:47:08;;;;;;;5.85;1.33;;;;;;;;;;6260887;22;20008;-89
2023/07/25 15:49:34;;;;;;;3.33;0.80;;;;;;;;;;6253350;22;20349;-88
2023/07/25 15:52:20;;;;;;;5.35;1.63;;;;;;;;;;6258935;22;20023;-90
2023/07/25 15:54:46;;;;;;;6.55;1.88;;;;;;;;;;6293875;22;20015;-88
2023/07/25 15:58:18;;;;;;;7.30;1.33;;;;;;;;;;6291911;22;19999;-89
2023/07/25 16:00:45;;;;;;;6.57;1.20;;;;;;;;;;6139010;23;20001;-87